createdAt,value
2023-02-04T00:00:34.594Z,25.05
2023-02-04T00:03:01.426Z,31.88
2023-02-04T00:05:28.303Z,15.00
2023-02-04T00:07:55.078Z,13.88
2023-02-04T00:10:21.948Z,15.90
2023-02-04T00:12:48.774Z,13.95
2023-02-04T00:15:15.563Z,11.55
2023-02-04T00:17:42.305Z,10.65
2023-02-04T00:20:09.882Z,13.57
2023-02-04T00:22:36.733Z,11.00
2023-02-04T00:25:03.670Z,11.38
2023-02-04T00:27:30.528Z,12.18
2023-02-04T00:29:57.756Z,17.38
2023-02-04T00:32:24.942Z,23.52
2023-02-04T00:34:53.740Z,24.02
2023-02-04T00:37:20.591Z,19.90
2023-02-04T00:39:47.403Z,23.30
2023-02-04T00:42:14.708Z,26.73
2023-02-04T00:44:41.940Z,25.20
2023-02-04T00:47:08.819Z,23.40
2023-02-04T00:49:35.691Z,21.10
2023-02-04T00:52:02.612Z,19.95
2023-02-04T00:54:29.935Z,21.77
2023-02-04T00:56:56.803Z,20.70
2023-02-04T00:59:24.339Z,20.25
2023-02-04T01:01:51.774Z,22.45
2023-02-04T01:04:18.895Z,19.48
2023-02-04T01:06:45.768Z,23.42
2023-02-04T01:09:12.533Z,22.30
2023-02-04T01:11:39.774Z,19.92
2023-02-04T01:14:06.942Z,19.95
2023-02-04T01:16:33.910Z,18.90
2023-02-04T01:19:00.816Z,20.35
2023-02-04T01:21:27.691Z,14.88
2023-02-04T01:23:54.504Z,16.27
2023-02-04T01:26:21.688Z,16.85
2023-02-04T01:28:48.975Z,15.18
2023-02-04T01:31:16.152Z,14.52
2023-02-04T01:33:43.546Z,14.82
2023-02-04T01:36:10.757Z,13.23
2023-02-04T01:38:37.642Z,11.18
2023-02-04T01:41:05.438Z,12.10
2023-02-04T01:43:32.956Z,10.57
2023-02-04T01:46:00.193Z,9.40
2023-02-04T01:48:27.172Z,9.90
2023-02-04T01:51:02.368Z,9.57
2023-02-04T01:53:29.256Z,8.70
2023-02-04T01:55:56.078Z,10.55
2023-02-04T01:58:22.898Z,10.60
2023-02-04T02:00:49.758Z,13.27
2023-02-04T02:03:16.602Z,11.05
2023-02-04T02:05:50.763Z,10.52
2023-02-04T02:08:17.867Z,10.65
2023-02-04T02:10:47.619Z,12.20
2023-02-04T02:13:17.792Z,11.50
2023-02-04T02:15:45.095Z,11.07
2023-02-04T02:18:12.552Z,11.85
2023-02-04T02:20:39.680Z,11.60
2023-02-04T02:23:14.830Z,9.80
2023-02-04T02:25:41.752Z,11.45
2023-02-04T02:28:13.504Z,11.55
2023-02-04T02:30:41.786Z,11.38
2023-02-04T02:33:08.728Z,10.93
2023-02-04T02:35:35.583Z,9.40
2023-02-04T02:38:02.878Z,10.75
2023-02-04T02:40:30.055Z,12.43
2023-02-04T02:42:57.112Z,7.65
2023-02-04T02:45:27.126Z,9.95
2023-02-04T02:47:57.524Z,10.02
2023-02-04T02:50:26.918Z,10.38
2023-02-04T02:52:54.636Z,10.13
2023-02-04T02:55:26.736Z,9.30
2023-02-04T02:57:55.652Z,6.28
2023-02-04T03:00:26.314Z,7.78
2023-02-04T03:03:06.662Z,7.47
2023-02-04T03:05:38.282Z,7.57
2023-02-04T03:08:05.941Z,7.82
2023-02-04T03:10:33.696Z,8.23
2023-02-04T03:13:00.944Z,8.85
2023-02-04T03:15:27.891Z,7.32
2023-02-04T03:17:56.640Z,7.68
2023-02-04T03:20:27.610Z,6.97
2023-02-04T03:22:55.642Z,7.13
2023-02-04T03:25:29.422Z,7.93
2023-02-04T03:27:58.840Z,6.55
2023-02-04T03:30:27.148Z,7.00
2023-02-04T03:32:54.480Z,6.57
2023-02-04T03:35:21.774Z,5.90
2023-02-04T03:37:48.704Z,5.18
2023-02-04T03:40:15.847Z,4.60
2023-02-04T03:42:42.680Z,4.25
2023-02-04T03:45:09.655Z,3.95
2023-02-04T03:47:36.464Z,4.20
2023-02-04T03:50:05.832Z,5.30
2023-02-04T03:52:32.725Z,8.20
2023-02-04T03:54:59.498Z,8.65
2023-02-04T03:57:26.362Z,9.32
2023-02-04T03:59:53.112Z,8.63
2023-02-04T04:02:19.980Z,10.43
2023-02-04T04:04:47.233Z,8.50
2023-02-04T04:07:14.068Z,9.32
2023-02-04T04:09:40.873Z,9.60
2023-02-04T04:12:08.093Z,7.75
2023-02-04T04:14:34.880Z,9.10
2023-02-04T04:17:01.704Z,6.60
2023-02-04T04:19:28.611Z,9.57
2023-02-04T04:21:55.779Z,10.63
2023-02-04T04:24:22.552Z,8.52
2023-02-04T04:26:49.546Z,8.82
2023-02-04T04:29:16.327Z,10.35
2023-02-04T04:31:44.899Z,10.68
2023-02-04T04:34:11.772Z,10.95
2023-02-04T04:36:38.605Z,12.52
2023-02-04T04:39:05.810Z,11.82
2023-02-04T04:41:32.576Z,11.52
2023-02-04T04:43:59.312Z,13.05
2023-02-04T04:46:26.607Z,10.63
2023-02-04T04:48:53.475Z,10.95
2023-02-04T04:51:20.364Z,8.48
2023-02-04T04:53:47.638Z,10.10
2023-02-04T04:56:14.512Z,9.15
2023-02-04T04:58:41.310Z,9.32
2023-02-04T05:01:08.102Z,8.18
2023-02-04T05:03:34.989Z,8.25
2023-02-04T05:06:01.804Z,9.13
2023-02-04T05:08:28.976Z,7.82
2023-02-04T05:10:55.776Z,9.73
2023-02-04T05:13:25.219Z,10.82
2023-02-04T05:15:51.966Z,8.05
2023-02-04T05:18:18.746Z,9.52
2023-02-04T05:20:45.565Z,12.32
2023-02-04T05:23:12.526Z,12.63
2023-02-04T05:25:39.358Z,13.02
2023-02-04T05:28:06.380Z,10.82
2023-02-04T05:30:33.586Z,11.18
2023-02-04T05:33:01.109Z,10.00
2023-02-04T05:35:27.832Z,10.90
2023-02-04T05:37:54.580Z,11.18
2023-02-04T05:40:21.354Z,11.13
2023-02-04T05:42:48.256Z,9.90
2023-02-04T05:45:16.945Z,10.38
2023-02-04T05:47:43.847Z,8.32
2023-02-04T05:50:11.176Z,8.07
2023-02-04T05:52:38.032Z,7.32
2023-02-04T05:55:05.214Z,8.02
2023-02-04T05:57:32.480Z,8.25
2023-02-04T05:59:59.438Z,9.60
2023-02-04T06:02:26.297Z,9.27
2023-02-04T06:04:53.467Z,9.30
2023-02-04T06:07:20.304Z,7.68
2023-02-04T06:09:47.124Z,8.77
2023-02-04T06:12:14.026Z,7.32
2023-02-04T06:14:41.163Z,7.38
2023-02-04T06:17:07.912Z,7.20
2023-02-04T06:19:34.772Z,7.07
2023-02-04T06:22:01.925Z,6.60
2023-02-04T06:24:29.103Z,7.30
2023-02-04T06:26:55.928Z,6.30
2023-02-04T06:29:25.848Z,6.35
2023-02-04T06:31:53.136Z,6.90
2023-02-04T06:34:19.978Z,7.88
2023-02-04T06:36:47.237Z,7.95
2023-02-04T06:39:14.469Z,9.50
2023-02-04T06:41:41.244Z,10.48
2023-02-04T06:44:08.452Z,14.20
2023-02-04T06:46:35.293Z,15.00
2023-02-04T06:49:02.515Z,14.82
2023-02-04T06:51:29.967Z,17.05
2023-02-04T06:53:56.829Z,20.17
2023-02-04T06:56:23.722Z,17.58
2023-02-04T06:58:50.553Z,14.07
2023-02-04T07:01:17.864Z,10.38
2023-02-04T07:03:44.709Z,14.35
2023-02-04T07:06:11.890Z,9.95
2023-02-04T07:08:39.229Z,9.70
2023-02-04T07:11:06.602Z,10.18
2023-02-04T07:13:33.374Z,8.65
2023-02-04T07:16:00.842Z,8.88
2023-02-04T07:18:28.152Z,15.23
2023-02-04T07:20:55.084Z,16.50
2023-02-04T07:23:21.845Z,20.83
2023-02-04T07:25:49.214Z,18.63
2023-02-04T07:28:16.072Z,18.45
2023-02-04T07:30:42.980Z,17.80
2023-02-04T07:33:09.959Z,17.50
2023-02-04T07:35:38.151Z,21.45
2023-02-04T07:38:05.992Z,20.27
2023-02-04T07:40:33.385Z,19.90
2023-02-04T07:43:00.515Z,19.63
2023-02-04T07:45:27.809Z,19.55
2023-02-04T07:47:55.069Z,19.13
2023-02-04T07:50:28.235Z,18.80
2023-02-04T07:52:58.401Z,18.42
2023-02-04T07:55:25.341Z,15.65
2023-02-04T07:57:52.261Z,15.18
2023-02-04T08:00:19.424Z,12.25
2023-02-04T08:02:46.736Z,13.27
2023-02-04T08:05:14.311Z,12.05
2023-02-04T08:07:41.155Z,9.52
2023-02-04T08:10:09.904Z,6.05
2023-02-04T08:12:37.007Z,5.28
2023-02-04T08:15:06.726Z,5.85
2023-02-04T08:17:37.287Z,7.80
2023-02-04T08:20:04.836Z,9.73
2023-02-04T08:22:32.028Z,9.93
2023-02-04T08:24:58.816Z,11.93
2023-02-04T08:27:25.881Z,5.45
2023-02-04T08:29:52.854Z,10.00
2023-02-04T08:32:19.702Z,9.63
2023-02-04T08:34:48.695Z,9.25
2023-02-04T08:37:15.787Z,8.35
2023-02-04T08:39:46.283Z,7.45
2023-02-04T08:42:16.890Z,6.68
2023-02-04T08:44:43.743Z,6.40
2023-02-04T08:47:11.000Z,4.80
2023-02-04T08:49:37.836Z,3.20
2023-02-04T08:52:06.659Z,2.88
2023-02-04T08:54:36.890Z,3.10
2023-02-04T08:57:03.989Z,10.70
2023-02-04T08:59:30.891Z,4.18
2023-02-04T09:01:58.277Z,7.82
2023-02-04T09:04:25.507Z,3.10
2023-02-04T09:06:52.773Z,3.08
2023-02-04T09:09:22.253Z,3.70
2023-02-04T09:11:49.816Z,3.45
2023-02-04T09:14:17.206Z,3.42
2023-02-04T09:16:44.470Z,3.45
2023-02-04T09:19:14.248Z,3.13
2023-02-04T09:21:41.070Z,3.67
2023-02-04T09:24:08.297Z,2.63
2023-02-04T09:26:35.068Z,2.47
2023-02-04T09:29:01.946Z,2.85
2023-02-04T09:31:29.227Z,2.97
2023-02-04T09:33:56.695Z,1.85
2023-02-04T09:36:28.443Z,2.35
2023-02-04T09:38:55.705Z,2.38
2023-02-04T09:41:22.629Z,2.53
2023-02-04T09:43:50.225Z,2.35
2023-02-04T09:46:21.862Z,1.85
2023-02-04T09:48:49.534Z,1.15
2023-02-04T09:51:20.867Z,1.38
2023-02-04T09:53:48.842Z,1.20
2023-02-04T09:56:15.738Z,1.40
2023-02-04T09:58:42.904Z,1.70
2023-02-04T10:01:16.891Z,1.23
2023-02-04T10:03:48.605Z,1.20
2023-02-04T10:06:17.607Z,1.00
2023-02-04T10:08:46.557Z,0.60
2023-02-04T10:11:14.779Z,1.10
2023-02-04T10:13:50.680Z,1.90
2023-02-04T10:16:30.157Z,1.40
2023-02-04T10:19:03.000Z,1.80
2023-02-04T10:21:36.910Z,1.65
2023-02-04T10:24:10.871Z,4.38
2023-02-04T10:26:37.680Z,1.98
2023-02-04T10:29:09.695Z,2.22
2023-02-04T10:31:39.525Z,26.33
2023-02-04T10:34:19.827Z,2.00
2023-02-04T10:36:50.233Z,1.40
2023-02-04T10:39:23.206Z,3.00
2023-02-04T10:41:53.830Z,3.47
2023-02-04T10:44:34.203Z,2.72
2023-02-04T10:47:06.070Z,1.60
2023-02-04T10:49:33.286Z,2.05
2023-02-04T10:52:03.092Z,1.42
2023-02-04T10:54:38.890Z,2.10
2023-02-04T10:57:21.676Z,1.70
2023-02-04T10:59:51.941Z,1.20
2023-02-04T11:02:43.582Z,1.50
2023-02-04T11:05:17.361Z,2.63
2023-02-04T11:07:46.691Z,1.88
2023-02-04T11:10:17.223Z,1.67
2023-02-04T11:12:48.092Z,1.42
2023-02-04T11:15:37.573Z,1.70
2023-02-04T11:18:06.648Z,1.20
2023-02-04T11:20:34.529Z,0.90
2023-02-04T11:23:17.472Z,1.50
2023-02-04T11:25:48.768Z,1.10
2023-02-04T11:28:27.122Z,1.40
2023-02-04T11:31:02.027Z,3.03
2023-02-04T11:33:39.766Z,2.03
2023-02-04T11:36:11.411Z,1.55
2023-02-04T11:38:39.040Z,1.40
2023-02-04T11:41:06.261Z,2.00
2023-02-04T11:43:42.033Z,1.40
2023-02-04T11:46:16.292Z,1.15
2023-02-04T11:48:43.656Z,1.45
2023-02-04T11:51:17.230Z,1.20
2023-02-04T11:53:44.486Z,1.10
2023-02-04T11:56:19.650Z,1.52
2023-02-04T11:58:48.675Z,1.33
2023-02-04T12:01:21.487Z,1.88
2023-02-04T12:03:50.349Z,4.10
2023-02-04T12:06:33.028Z,2.35
2023-02-04T12:09:06.490Z,1.38
2023-02-04T12:11:34.104Z,1.70
2023-02-04T12:14:10.707Z,2.83
2023-02-04T12:16:42.698Z,1.60
2023-02-04T12:19:09.521Z,1.50
2023-02-04T12:21:36.357Z,1.75
2023-02-04T12:24:03.752Z,1.25
2023-02-04T12:26:30.541Z,1.70
2023-02-04T12:29:05.667Z,0.98
2023-02-04T12:31:33.953Z,2.33
2023-02-04T12:34:04.416Z,2.00
2023-02-04T12:36:31.196Z,1.70
2023-02-04T12:39:02.876Z,1.88
2023-02-04T12:41:32.888Z,1.33
2023-02-04T12:44:01.425Z,1.88
2023-02-04T12:46:34.582Z,2.30
2023-02-04T12:49:03.330Z,1.80
2023-02-04T12:51:31.094Z,1.98
2023-02-04T12:53:58.472Z,2.05
2023-02-04T12:56:25.506Z,2.53
2023-02-04T12:58:52.288Z,1.60
2023-02-04T13:01:19.442Z,1.88
2023-02-04T13:03:46.295Z,1.80
2023-02-04T13:06:13.439Z,1.75
2023-02-04T13:08:42.869Z,1.35
2023-02-04T13:11:09.701Z,2.20
2023-02-04T13:13:36.711Z,2.10
2023-02-04T13:16:03.780Z,2.47
2023-02-04T13:18:30.979Z,4.25
2023-02-04T13:20:57.823Z,2.75
2023-02-04T13:23:24.556Z,3.10
2023-02-04T13:25:51.897Z,8.20
2023-02-04T13:28:18.772Z,10.52
2023-02-04T13:30:45.652Z,4.10
2023-02-04T13:33:12.588Z,5.03
2023-02-04T13:35:39.549Z,6.53
2023-02-04T13:38:06.334Z,4.65
2023-02-04T13:40:33.248Z,1.92
2023-02-04T13:43:00.189Z,2.17
2023-02-04T13:45:27.358Z,1.90
2023-02-04T13:47:54.232Z,2.65
2023-02-04T13:50:21.097Z,3.13
2023-02-04T13:52:47.863Z,2.63
2023-02-04T13:55:14.814Z,4.20
2023-02-04T13:57:41.704Z,2.90
2023-02-04T14:00:09.694Z,3.45
2023-02-04T14:02:36.660Z,2.80
2023-02-04T14:05:03.667Z,1.60
2023-02-04T14:07:30.604Z,2.13
2023-02-04T14:09:57.479Z,2.25
2023-02-04T14:12:24.212Z,1.50
2023-02-04T14:14:51.117Z,1.80
2023-02-04T14:17:18.373Z,1.88
2023-02-04T14:19:45.596Z,2.05
2023-02-04T14:22:13.248Z,1.90
2023-02-04T14:24:42.636Z,1.88
2023-02-04T14:27:10.788Z,1.60
2023-02-04T14:29:37.623Z,1.77
2023-02-04T14:32:04.904Z,1.80
2023-02-04T14:34:31.935Z,1.80
2023-02-04T14:36:58.771Z,1.80
2023-02-04T14:39:25.620Z,1.85
2023-02-04T14:41:52.885Z,1.90
2023-02-04T14:44:20.998Z,2.20
2023-02-04T14:46:49.133Z,2.50
2023-02-04T14:49:19.032Z,2.58
2023-02-04T14:51:46.862Z,1.80
2023-02-04T14:54:15.098Z,2.03
2023-02-04T14:56:42.148Z,2.70
2023-02-04T14:59:08.997Z,2.70
2023-02-04T15:01:36.241Z,2.50
2023-02-04T15:04:03.181Z,2.55
2023-02-04T15:06:30.353Z,1.80
2023-02-04T15:08:57.233Z,2.30
2023-02-04T15:11:24.240Z,2.20
2023-02-04T15:13:52.662Z,3.03
2023-02-04T15:16:20.420Z,1.70
2023-02-04T15:18:49.087Z,2.20
2023-02-04T15:21:17.275Z,2.53
2023-02-04T15:23:45.186Z,2.22
2023-02-04T15:26:12.405Z,2.30
2023-02-04T15:28:39.568Z,5.35
2023-02-04T15:31:06.659Z,9.27
2023-02-04T15:33:37.932Z,6.90
2023-02-04T15:36:08.114Z,7.97
2023-02-04T15:38:35.478Z,14.63
2023-02-04T15:41:06.608Z,12.77
2023-02-04T15:43:33.393Z,6.88
2023-02-04T15:46:00.502Z,19.10
2023-02-04T15:48:28.304Z,15.32
2023-02-04T15:50:55.363Z,7.97
2023-02-04T15:53:25.128Z,5.50
2023-02-04T15:55:52.414Z,5.93
2023-02-04T15:58:31.201Z,5.35
2023-02-04T16:00:58.009Z,4.50
2023-02-04T16:03:26.378Z,4.93
2023-02-04T16:05:55.301Z,4.82
2023-02-04T16:08:22.463Z,4.22
2023-02-04T16:10:49.412Z,4.90
2023-02-04T16:13:17.052Z,5.07
2023-02-04T16:15:43.889Z,6.55
2023-02-04T16:18:10.788Z,5.72
2023-02-04T16:20:38.275Z,4.38
2023-02-04T16:23:07.188Z,7.07
2023-02-04T16:25:36.301Z,8.23
2023-02-04T16:28:04.270Z,6.70
2023-02-04T16:30:31.184Z,6.50
2023-02-04T16:32:58.136Z,6.57
2023-02-04T16:35:27.044Z,6.13
2023-02-04T16:37:53.962Z,3.00
2023-02-04T16:40:21.240Z,2.22
2023-02-04T16:42:48.152Z,3.10
2023-02-04T16:45:15.103Z,5.47
2023-02-04T16:47:42.341Z,3.28
2023-02-04T16:50:10.311Z,3.95
2023-02-04T16:52:37.494Z,8.55
2023-02-04T16:55:04.905Z,3.03
2023-02-04T16:57:31.736Z,3.58
2023-02-04T16:59:58.571Z,3.08
2023-02-04T17:02:25.411Z,3.78
2023-02-04T17:04:54.336Z,4.28
2023-02-04T17:07:21.105Z,4.28
2023-02-04T17:09:47.892Z,4.88
2023-02-04T17:12:14.671Z,4.38
2023-02-04T17:14:41.574Z,3.45
2023-02-04T17:17:10.857Z,4.95
2023-02-04T17:19:37.619Z,5.85
2023-02-04T17:22:04.467Z,5.68
2023-02-04T17:24:31.732Z,2.92
2023-02-04T17:27:00.620Z,2.70
2023-02-04T17:29:28.000Z,8.05
2023-02-04T17:31:55.969Z,9.10
2023-02-04T17:34:23.431Z,11.10
2023-02-04T17:36:50.667Z,5.30
2023-02-04T17:39:17.543Z,5.15
2023-02-04T17:41:44.835Z,12.57
2023-02-04T17:44:17.017Z,9.60
2023-02-04T17:46:46.832Z,8.00
2023-02-04T17:49:13.812Z,10.00
2023-02-04T17:51:40.670Z,4.05
2023-02-04T17:54:07.947Z,5.50
2023-02-04T17:56:35.371Z,5.57
2023-02-04T17:59:02.364Z,2.78
2023-02-04T18:01:29.720Z,5.25
2023-02-04T18:03:58.050Z,4.05
2023-02-04T18:06:29.027Z,3.65
2023-02-04T18:09:01.633Z,2.22
2023-02-04T18:11:35.918Z,3.28
2023-02-04T18:14:14.155Z,3.22
2023-02-04T18:16:41.611Z,2.13
2023-02-04T18:19:29.520Z,1.92
2023-02-04T18:21:59.026Z,2.67
2023-02-04T18:24:36.056Z,2.58
2023-02-04T18:27:18.023Z,2.55
2023-02-04T18:29:48.453Z,1.90
2023-02-04T18:32:33.449Z,3.55
2023-02-04T18:35:04.410Z,3.00
2023-02-04T18:37:46.947Z,4.75
2023-02-04T18:40:20.586Z,2.72
2023-02-04T18:42:48.022Z,2.95
2023-02-04T18:45:24.139Z,3.22
2023-02-04T18:47:55.426Z,4.40
2023-02-04T18:50:28.097Z,5.47
2023-02-04T18:52:55.516Z,5.30
2023-02-04T18:55:37.095Z,5.10
2023-02-04T18:58:31.213Z,4.03
2023-02-04T19:01:24.029Z,3.67
2023-02-04T19:03:56.327Z,3.45
2023-02-04T19:06:38.268Z,3.33
2023-02-04T19:09:18.804Z,5.00
2023-02-04T19:11:53.884Z,4.10
2023-02-04T19:14:35.780Z,7.10
2023-02-04T19:17:17.589Z,5.03
2023-02-04T19:19:59.735Z,4.70
2023-02-04T19:22:37.139Z,5.35
2023-02-04T19:25:22.333Z,4.40
2023-02-04T19:27:56.063Z,5.93
2023-02-04T19:30:29.068Z,6.15
2023-02-04T19:33:03.710Z,5.45
2023-02-04T19:35:40.845Z,5.78
2023-02-04T19:38:36.115Z,3.50
2023-02-04T19:41:02.913Z,3.17
2023-02-04T19:43:36.850Z,5.72
2023-02-04T19:46:24.111Z,4.22
2023-02-04T19:48:51.660Z,6.40
2023-02-04T19:51:29.331Z,4.25
2023-02-04T19:54:02.647Z,6.25
2023-02-04T19:56:36.367Z,6.80
2023-02-04T19:59:23.896Z,8.63
2023-02-04T20:02:00.429Z,8.68
2023-02-04T20:04:35.790Z,5.53
2023-02-04T20:07:12.980Z,4.40
2023-02-04T20:09:40.987Z,7.03
2023-02-04T20:12:17.589Z,6.90
2023-02-04T20:14:57.262Z,6.13
2023-02-04T20:17:44.185Z,5.85
2023-02-04T20:20:29.396Z,10.27
2023-02-04T20:23:01.425Z,7.78
2023-02-04T20:25:38.483Z,5.50
2023-02-04T20:28:21.693Z,4.07
2023-02-04T20:30:50.730Z,3.25
2023-02-04T20:33:32.960Z,6.57
2023-02-04T20:36:15.399Z,6.43
2023-02-04T20:38:42.353Z,9.07
2023-02-04T20:41:22.302Z,8.52
2023-02-04T20:43:50.332Z,9.25
2023-02-04T20:46:23.508Z,15.95
2023-02-04T20:48:51.122Z,9.73
2023-02-04T20:51:24.099Z,12.77
2023-02-04T20:54:00.563Z,10.40
2023-02-04T20:56:27.799Z,8.43
2023-02-04T20:59:12.025Z,6.18
2023-02-04T21:01:44.346Z,6.70
2023-02-04T21:04:29.325Z,6.28
2023-02-04T21:07:04.035Z,5.68
2023-02-04T21:09:34.202Z,3.35
2023-02-04T21:12:02.397Z,7.55
2023-02-04T21:14:30.123Z,7.35
2023-02-04T21:16:57.538Z,5.70
2023-02-04T21:19:25.868Z,7.47
2023-02-04T21:21:58.869Z,3.72
2023-02-04T21:24:26.788Z,5.90
2023-02-04T21:26:53.838Z,4.72
2023-02-04T21:29:20.676Z,3.20
2023-02-04T21:31:47.583Z,2.85
2023-02-04T21:34:15.714Z,2.08
2023-02-04T21:36:42.617Z,3.50
2023-02-04T21:39:09.374Z,2.75
2023-02-04T21:41:36.620Z,1.95
2023-02-04T21:44:05.904Z,2.03
2023-02-04T21:46:33.189Z,2.17
2023-02-04T21:49:00.631Z,2.20
2023-02-04T21:51:28.105Z,2.22
2023-02-04T21:53:59.967Z,2.17
2023-02-04T21:56:26.781Z,2.33
2023-02-04T21:58:54.457Z,3.20
2023-02-04T22:01:21.424Z,2.50
2023-02-04T22:03:48.415Z,3.63
2023-02-04T22:06:15.361Z,3.60
2023-02-04T22:08:42.212Z,5.07
2023-02-04T22:11:09.437Z,3.05
2023-02-04T22:13:36.310Z,3.55
2023-02-04T22:16:03.082Z,3.33
2023-02-04T22:18:30.343Z,2.80
2023-02-04T22:20:57.222Z,2.22
2023-02-04T22:23:24.014Z,1.10
2023-02-04T22:25:50.934Z,1.60
2023-02-04T22:28:17.832Z,1.98
2023-02-04T22:30:44.716Z,1.40
2023-02-04T22:33:13.963Z,1.27
2023-02-04T22:35:41.237Z,2.40
2023-02-04T22:38:09.105Z,0.90
2023-02-04T22:40:35.956Z,1.00
2023-02-04T22:43:04.803Z,1.30
2023-02-04T22:45:31.927Z,1.35
2023-02-04T22:47:58.919Z,2.10
2023-02-04T22:50:25.777Z,1.20
2023-02-04T22:52:52.545Z,0.90
2023-02-04T22:55:19.341Z,0.88
2023-02-04T22:57:46.591Z,0.75
2023-02-04T23:00:14.143Z,0.55
2023-02-04T23:02:41.001Z,0.70
2023-02-04T23:05:08.124Z,1.50
2023-02-04T23:07:35.210Z,1.95
2023-02-04T23:10:02.132Z,1.58
2023-02-04T23:12:28.975Z,1.60
2023-02-04T23:14:55.929Z,1.70
2023-02-04T23:17:22.893Z,1.77
2023-02-04T23:19:50.078Z,1.70
2023-02-04T23:22:17.744Z,1.63
2023-02-04T23:24:44.924Z,1.35
2023-02-04T23:27:12.631Z,1.13
2023-02-04T23:29:40.500Z,1.70
2023-02-04T23:32:08.669Z,1.10
2023-02-04T23:34:36.543Z,1.52
2023-02-04T23:37:04.016Z,2.08
2023-02-04T23:39:31.054Z,2.13
2023-02-04T23:41:57.961Z,1.75
2023-02-04T23:44:24.941Z,2.22
2023-02-04T23:46:51.947Z,2.55
2023-02-04T23:49:19.196Z,2.20
2023-02-04T23:51:46.423Z,1.52
2023-02-04T23:54:13.333Z,1.23
2023-02-04T23:56:40.506Z,1.48
2023-02-04T23:59:08.316Z,1.73
